Forside
METAR-TAF:

METAR-TAF

Lufthavne :

Amman, Jordan

Breddekreds: 31-59N, længdekreds: 035-59E, højde: 767 m

Aktuelle vejr

Denne rapport blev lavet for 1 time og 9 minutter siden, kl. 12:00 UTC
Vind stille
Temperatur 15°C
Fugtighed 44%
Tryk 1016 hPa
Sigt: 3500 m
tåge/dis

METAR: OJAM 221200Z 00000KT 3500 HZ NSC 15/03 Q1016 NOSIG

Tid: 15:09 (13:09 UTC)

Vejrudsigter

Denne rapport blev lavet for 2 timer og 9 minutter siden, kl. 11:00 UTC
Foreløbig gælder fra 22 på 12 UTC til 23 på 18 UTC
Vind 2 kt fra varierende retninger
Sigt: 2500 m
tåge/dis
ændring
fra 22 på 14 UTC til 22 på 16 UTC
Vind 5 kt fra vest
Sigt: 4000 m
Sandsynlighed 30%
fra 23 på 02 UTC til 23 på 06 UTC
Sigt: 2500 m
røg
ændring
fra 23 på 06 UTC til 23 på 08 UTC
Vind 6 kt fra østsydøst
Sigt: 5000 m

TAF: OJAM 221100Z 2212/2318 VRB02KT 2500 HZ NSC BECMG 2214/2216 28005KT 4000 PROB30 2302/2306 2500 FU BECMG 2306/2308 12006KT 5000

Vejrobservationer og prognoser fra mere end 4000 lufthavne (METAR og TAF).

De gule og røde prikker repræsenterer de meteorologiske stationer.

Flyt musen over at se navnet på stationen.

Så klik over at se vejr observationer og prognoser.

At skifte det kort: Klik på de grønne knapper med et sort kors for at zoome ind; på den grønne knap med en bindestreg for at zoome ud; eller på de grønne pile for tilstødende kort.


METAR-TAF: